createdAt,value
2023-03-03T00:00:50.677Z,50.902420
2023-03-03T00:01:50.650Z,50.902374
2023-03-03T00:02:50.666Z,50.902401
2023-03-03T00:03:50.715Z,50.902405
2023-03-03T00:04:50.641Z,50.902412
2023-03-03T00:05:50.606Z,50.902431
2023-03-03T00:06:50.611Z,50.902405
2023-03-03T00:07:50.595Z,50.902401
2023-03-03T00:08:50.641Z,50.902412
2023-03-03T00:09:50.654Z,50.902378
2023-03-03T00:10:50.604Z,50.902397
2023-03-03T00:11:50.596Z,50.902393
2023-03-03T00:12:50.561Z,50.902393
2023-03-03T00:13:50.610Z,50.902412
2023-03-03T00:14:50.538Z,50.902393
2023-03-03T00:15:50.676Z,50.902390
2023-03-03T00:16:50.539Z,50.902393
2023-03-03T00:17:50.517Z,50.902409
2023-03-03T00:18:50.566Z,50.902409
2023-03-03T00:19:50.501Z,50.902386
2023-03-03T00:20:50.485Z,50.902348
2023-03-03T00:21:50.495Z,50.902393
2023-03-03T00:22:50.480Z,50.902409
2023-03-03T00:23:50.497Z,50.902431
2023-03-03T00:24:50.463Z,50.902401
2023-03-03T00:25:50.458Z,50.902409
2023-03-03T00:26:50.476Z,50.902428
2023-03-03T00:27:50.432Z,50.902443
2023-03-03T00:28:50.454Z,50.902428
2023-03-03T00:29:50.423Z,50.902416
2023-03-03T00:30:50.462Z,50.902424
2023-03-03T00:31:50.423Z,50.902321
2023-03-03T00:32:50.401Z,50.902431
2023-03-03T00:33:50.421Z,50.902409
2023-03-03T00:34:50.386Z,50.902409
2023-03-03T00:35:50.471Z,50.902359
2023-03-03T00:36:50.371Z,50.902420
2023-03-03T00:37:50.366Z,50.902382
2023-03-03T00:38:50.381Z,50.902390
2023-03-03T00:39:50.368Z,50.902386
2023-03-03T00:40:50.335Z,50.902405
2023-03-03T00:41:50.345Z,50.902370
2023-03-03T00:42:50.323Z,50.902405
2023-03-03T00:43:50.338Z,50.902374
2023-03-03T00:44:50.308Z,50.902386
2023-03-03T00:45:50.406Z,50.902390
2023-03-03T00:46:50.291Z,50.902390
2023-03-03T00:47:50.281Z,50.902351
2023-03-03T00:48:51.303Z,50.902370
2023-03-03T00:49:50.270Z,50.902359
2023-03-03T00:50:50.260Z,50.902355
2023-03-03T00:51:50.263Z,50.902386
2023-03-03T00:52:50.250Z,50.902393
2023-03-03T00:53:50.292Z,50.902393
2023-03-03T00:54:50.246Z,50.902401
2023-03-03T00:55:50.229Z,50.902386
2023-03-03T00:56:50.224Z,50.902382
2023-03-03T00:57:50.237Z,50.902405
2023-03-03T00:58:50.237Z,50.902378
2023-03-03T00:59:50.206Z,50.902378
2023-03-03T01:00:50.194Z,50.902405
2023-03-03T01:01:50.273Z,50.902374
2023-03-03T01:02:50.187Z,50.902378
2023-03-03T01:03:50.188Z,50.902416
2023-03-03T01:04:50.176Z,50.902409
2023-03-03T01:05:50.148Z,50.902370
2023-03-03T01:06:50.144Z,50.902367
2023-03-03T01:07:50.138Z,50.902386
2023-03-03T01:08:50.118Z,50.902359
2023-03-03T01:09:50.140Z,50.902336
2023-03-03T01:10:50.105Z,50.902321
2023-03-03T01:11:50.100Z,50.902363
2023-03-03T01:12:50.090Z,50.902393
2023-03-03T01:13:50.078Z,50.902332
2023-03-03T01:14:50.099Z,50.902336
2023-03-03T01:15:50.095Z,50.902405
2023-03-03T01:16:50.076Z,50.902420
2023-03-03T01:17:50.061Z,50.902420
2023-03-03T01:18:50.049Z,50.902397
2023-03-03T01:19:50.063Z,50.902401
2023-03-03T01:20:50.031Z,50.902401
2023-03-03T01:21:50.036Z,50.902405
2023-03-03T01:22:50.013Z,50.902367
2023-03-03T01:23:50.031Z,50.902412
2023-03-03T01:24:50.059Z,50.902412
2023-03-03T01:25:49.987Z,50.902409
2023-03-03T01:26:49.982Z,50.902386
2023-03-03T01:27:49.976Z,50.902420
2023-03-03T01:28:49.965Z,50.902435
2023-03-03T01:29:49.983Z,50.902424
2023-03-03T01:30:49.964Z,50.902397
2023-03-03T01:31:49.949Z,50.902393
2023-03-03T01:32:49.933Z,50.902416
2023-03-03T01:33:49.933Z,50.902397
2023-03-03T01:34:49.949Z,50.902370
2023-03-03T01:35:49.924Z,50.902359
2023-03-03T01:36:49.902Z,50.902443
2023-03-03T01:37:49.900Z,50.902363
2023-03-03T01:38:49.884Z,50.902397
2023-03-03T01:39:49.923Z,50.902401
2023-03-03T01:40:49.905Z,50.902420
2023-03-03T01:41:49.862Z,50.902500
2023-03-03T01:42:49.868Z,50.902435
2023-03-03T01:43:49.846Z,50.902435
2023-03-03T01:44:49.870Z,50.902424
2023-03-03T01:45:49.829Z,50.902409
2023-03-03T01:46:49.846Z,50.902397
2023-03-03T01:47:49.829Z,50.902412
2023-03-03T01:48:49.805Z,50.902401
2023-03-03T01:49:49.835Z,50.902401
2023-03-03T01:50:49.795Z,50.902382
2023-03-03T01:51:49.811Z,50.902397
2023-03-03T01:52:49.799Z,50.902355
2023-03-03T01:53:49.770Z,50.902390
2023-03-03T01:54:49.787Z,50.902374
2023-03-03T01:55:49.781Z,50.902397
2023-03-03T01:56:49.749Z,50.902412
2023-03-03T01:57:49.776Z,50.902409
2023-03-03T01:58:49.746Z,50.902397
2023-03-03T01:59:49.798Z,50.902428
2023-03-03T02:00:49.708Z,50.902397
2023-03-03T02:01:49.775Z,50.902409
2023-03-03T02:02:49.776Z,50.902454
2023-03-03T02:03:49.689Z,50.902424
2023-03-03T02:04:49.713Z,50.902393
2023-03-03T02:05:49.680Z,50.902401
2023-03-03T02:06:49.670Z,50.902405
2023-03-03T02:07:49.662Z,50.902416
2023-03-03T02:08:49.687Z,50.902405
2023-03-03T02:09:49.684Z,50.902401
2023-03-03T02:10:49.638Z,50.902439
2023-03-03T02:11:49.634Z,50.902386
2023-03-03T02:12:49.635Z,50.902416
2023-03-03T02:13:49.613Z,50.902405
2023-03-03T02:14:49.710Z,50.902435
2023-03-03T02:15:49.643Z,50.902462
2023-03-03T02:16:49.637Z,50.902359
2023-03-03T02:17:49.587Z,50.902390
2023-03-03T02:18:49.582Z,50.902405
2023-03-03T02:19:49.606Z,50.902405
2023-03-03T02:20:49.569Z,50.902367
2023-03-03T02:21:49.574Z,50.902416
2023-03-03T02:22:49.576Z,50.902374
2023-03-03T02:23:49.532Z,50.902393
2023-03-03T02:24:50.585Z,50.902470
2023-03-03T02:25:49.536Z,50.902393
2023-03-03T02:26:49.522Z,50.902412
2023-03-03T02:27:49.514Z,50.902405
2023-03-03T02:28:49.512Z,50.902405
2023-03-03T02:29:49.540Z,50.902374
2023-03-03T02:30:49.496Z,50.902386
2023-03-03T02:31:49.597Z,50.902386
2023-03-03T02:32:49.482Z,50.902424
2023-03-03T02:33:49.488Z,50.902344
2023-03-03T02:34:49.504Z,50.902378
2023-03-03T02:35:49.498Z,50.902409
2023-03-03T02:36:49.462Z,50.902321
2023-03-03T02:37:49.446Z,50.902374
2023-03-03T02:38:49.470Z,50.902359
2023-03-03T02:39:49.431Z,50.902348
2023-03-03T02:40:49.447Z,50.902386
2023-03-03T02:41:49.414Z,50.902409
2023-03-03T02:42:49.418Z,50.902374
2023-03-03T02:43:49.398Z,50.902340
2023-03-03T02:44:49.393Z,50.902370
2023-03-03T02:45:49.456Z,50.902367
2023-03-03T02:46:49.393Z,50.902355
2023-03-03T02:47:49.379Z,50.902424
2023-03-03T02:48:49.361Z,50.902390
2023-03-03T02:49:49.361Z,50.902405
2023-03-03T02:50:49.367Z,50.902382
2023-03-03T02:51:49.348Z,50.902401
2023-03-03T02:52:49.329Z,50.902390
2023-03-03T02:53:49.324Z,50.902439
2023-03-03T02:54:49.367Z,50.902313
2023-03-03T02:55:49.345Z,50.902264
2023-03-03T02:56:49.297Z,50.902210
2023-03-03T02:57:49.303Z,50.902290
2023-03-03T02:58:49.293Z,50.902393
2023-03-03T02:59:49.278Z,50.902393
2023-03-03T03:00:49.299Z,50.902409
2023-03-03T03:01:49.274Z,50.902401
2023-03-03T03:02:49.249Z,50.902378
2023-03-03T03:03:49.433Z,50.902348
2023-03-03T03:04:49.234Z,50.902363
2023-03-03T03:05:49.250Z,50.902363
2023-03-03T03:06:49.219Z,50.902332
2023-03-03T03:07:49.205Z,50.902382
2023-03-03T03:08:49.206Z,50.902420
2023-03-03T03:09:49.232Z,50.902363
2023-03-03T03:10:49.273Z,50.902390
2023-03-03T03:11:49.256Z,50.902306
2023-03-03T03:12:49.182Z,50.902313
2023-03-03T03:13:49.171Z,50.902328
2023-03-03T03:14:49.163Z,50.902313
2023-03-03T03:15:49.173Z,50.902309
2023-03-03T03:16:49.192Z,50.902248
2023-03-03T03:17:49.136Z,50.902325
2023-03-03T03:18:49.124Z,50.902317
2023-03-03T03:19:49.119Z,50.902351
2023-03-03T03:20:49.150Z,50.902424
2023-03-03T03:21:49.120Z,50.902355
2023-03-03T03:22:49.107Z,50.902390
2023-03-03T03:23:49.098Z,50.902351
2023-03-03T03:24:49.093Z,50.902363
2023-03-03T03:25:49.117Z,50.902340
2023-03-03T03:26:49.066Z,50.902332
2023-03-03T03:27:49.102Z,50.902332
2023-03-03T03:28:49.120Z,50.902344
2023-03-03T03:29:49.061Z,50.902325
2023-03-03T03:30:49.117Z,50.902393
2023-03-03T03:31:49.068Z,50.902405
2023-03-03T03:32:49.084Z,50.902348
2023-03-03T03:33:49.031Z,50.902321
2023-03-03T03:34:49.011Z,50.902328
2023-03-03T03:35:49.045Z,50.902348
2023-03-03T03:36:49.028Z,50.902355
2023-03-03T03:37:49.008Z,50.902340
2023-03-03T03:38:48.989Z,50.902306
2023-03-03T03:39:48.976Z,50.902294
2023-03-03T03:40:48.989Z,50.902374
2023-03-03T03:41:48.977Z,50.902336
2023-03-03T03:42:48.975Z,50.902290
2023-03-03T03:43:48.953Z,50.902313
2023-03-03T03:44:48.939Z,50.902306
2023-03-03T03:45:48.959Z,50.902287
2023-03-03T03:46:48.947Z,50.902340
2023-03-03T03:47:48.930Z,50.902378
2023-03-03T03:48:48.912Z,50.902351
2023-03-03T03:49:48.906Z,50.902378
2023-03-03T03:50:48.890Z,50.902428
2023-03-03T03:51:48.940Z,50.902382
2023-03-03T03:52:48.888Z,50.902451
2023-03-03T03:53:48.868Z,50.902359
2023-03-03T03:54:48.885Z,50.902401
2023-03-03T03:55:48.852Z,50.902393
2023-03-03T03:56:48.939Z,50.902355
2023-03-03T03:57:48.847Z,50.902451
2023-03-03T03:58:48.838Z,50.902390
2023-03-03T03:59:48.832Z,50.902378
2023-03-03T04:00:48.830Z,50.902344
2023-03-03T04:01:48.833Z,50.902355
2023-03-03T04:02:48.891Z,50.902348
2023-03-03T04:03:48.802Z,50.902367
2023-03-03T04:04:48.794Z,50.902386
2023-03-03T04:05:48.823Z,50.902390
2023-03-03T04:06:48.810Z,50.902405
2023-03-03T04:07:48.771Z,50.902378
2023-03-03T04:08:48.767Z,50.902374
2023-03-03T04:09:48.791Z,50.902397
2023-03-03T04:10:48.741Z,50.902348
2023-03-03T04:11:48.772Z,50.902370
2023-03-03T04:12:48.730Z,50.902348
2023-03-03T04:13:48.742Z,50.902363
2023-03-03T04:14:48.723Z,50.902374
2023-03-03T04:15:48.752Z,50.902374
2023-03-03T04:16:48.741Z,50.902363
2023-03-03T04:17:48.696Z,50.902382
2023-03-03T04:18:48.707Z,50.902374
2023-03-03T04:19:48.693Z,50.902355
2023-03-03T04:20:48.680Z,50.902363
2023-03-03T04:21:49.380Z,50.902367
2023-03-03T04:22:48.690Z,50.902397
2023-03-03T04:23:48.745Z,50.902401
2023-03-03T04:24:48.714Z,50.902409
2023-03-03T04:25:48.746Z,50.902397
2023-03-03T04:26:48.669Z,50.902393
2023-03-03T04:27:48.656Z,50.902401
2023-03-03T04:28:48.699Z,50.902378
2023-03-03T04:29:48.611Z,50.902390
2023-03-03T04:30:48.641Z,50.902374
2023-03-03T04:31:48.628Z,50.902405
2023-03-03T04:32:48.589Z,50.902397
2023-03-03T04:33:49.582Z,50.902382
2023-03-03T04:34:53.103Z,50.902374
2023-03-03T04:35:50.590Z,50.902378
2023-03-03T04:36:48.589Z,50.902397
2023-03-03T04:37:48.572Z,50.902355
2023-03-03T04:38:48.561Z,50.902359
2023-03-03T04:39:48.547Z,50.902382
2023-03-03T04:40:48.622Z,50.902382
2023-03-03T04:41:48.558Z,50.902363
2023-03-03T04:42:48.525Z,50.902382
2023-03-03T04:43:48.554Z,50.902378
2023-03-03T04:44:48.504Z,50.902351
2023-03-03T04:45:48.528Z,50.902367
2023-03-03T04:46:48.489Z,50.902405
2023-03-03T04:47:48.479Z,50.902409
2023-03-03T04:48:48.525Z,50.902382
2023-03-03T04:49:48.483Z,50.902412
2023-03-03T04:50:48.474Z,50.902416
2023-03-03T04:51:48.479Z,50.902386
2023-03-03T04:52:48.475Z,50.902393
2023-03-03T04:53:48.481Z,50.902378
2023-03-03T04:54:48.441Z,50.902367
2023-03-03T04:55:48.433Z,50.902367
2023-03-03T04:56:48.552Z,50.902374
2023-03-03T04:57:48.413Z,50.902370
2023-03-03T04:58:48.430Z,50.902416
2023-03-03T04:59:48.394Z,50.902447
2023-03-03T05:00:48.380Z,50.902390
2023-03-03T05:01:48.409Z,50.902435
2023-03-03T05:02:48.384Z,50.902439
2023-03-03T05:03:48.381Z,50.902454
2023-03-03T05:04:48.466Z,50.902412
2023-03-03T05:05:48.338Z,50.902451
2023-03-03T05:06:48.355Z,50.902470
2023-03-03T05:07:48.321Z,50.902424
2023-03-03T05:08:48.361Z,50.902435
2023-03-03T05:09:48.326Z,50.902435
2023-03-03T05:10:48.295Z,50.902435
2023-03-03T05:11:48.319Z,50.902454
2023-03-03T05:12:48.287Z,50.902439
2023-03-03T05:13:48.344Z,50.902447
2023-03-03T05:14:48.264Z,50.902493
2023-03-03T05:15:48.357Z,50.902534
2023-03-03T05:16:48.245Z,50.902489
2023-03-03T05:17:48.326Z,50.902496
2023-03-03T05:18:48.262Z,50.902420
2023-03-03T05:19:48.230Z,50.902386
2023-03-03T05:20:48.236Z,50.902454
2023-03-03T05:21:48.211Z,50.902477
2023-03-03T05:22:48.207Z,50.902401
2023-03-03T05:23:48.226Z,50.902416
2023-03-03T05:24:48.203Z,50.902378
2023-03-03T05:25:48.190Z,50.902363
2023-03-03T05:26:48.177Z,50.902351
2023-03-03T05:27:48.175Z,50.902355
2023-03-03T05:28:48.205Z,50.902348
2023-03-03T05:29:48.155Z,50.902447
2023-03-03T05:30:48.140Z,50.902447
2023-03-03T05:31:48.183Z,50.902485
2023-03-03T05:32:48.125Z,50.902557
2023-03-03T05:33:48.171Z,50.902626
2023-03-03T05:34:48.138Z,50.902538
2023-03-03T05:35:48.172Z,50.902523
2023-03-03T05:36:48.111Z,50.902447
2023-03-03T05:37:48.868Z,50.902454
2023-03-03T05:38:48.117Z,50.902405
2023-03-03T05:39:48.077Z,50.902454
2023-03-03T05:40:48.061Z,50.902435
2023-03-03T05:41:48.062Z,50.902439
2023-03-03T05:42:48.076Z,50.902447
2023-03-03T05:43:48.090Z,50.902431
2023-03-03T05:44:48.045Z,50.902428
2023-03-03T05:45:48.051Z,50.902447
2023-03-03T05:46:48.084Z,50.902489
2023-03-03T05:47:48.015Z,50.902493
2023-03-03T05:48:48.051Z,50.902454
2023-03-03T05:49:48.001Z,50.902355
2023-03-03T05:50:48.004Z,50.902287
2023-03-03T05:51:47.992Z,50.902454
2023-03-03T05:52:47.973Z,50.902359
2023-03-03T05:53:48.010Z,50.902420
2023-03-03T05:54:47.967Z,50.902473
2023-03-03T05:55:47.952Z,50.902508
2023-03-03T05:56:47.950Z,50.902454
2023-03-03T05:57:47.961Z,50.902470
2023-03-03T05:58:47.960Z,50.902393
2023-03-03T05:59:47.970Z,50.902397
2023-03-03T06:00:47.917Z,50.902431
2023-03-03T06:01:47.953Z,50.902454
2023-03-03T06:02:47.924Z,50.902428
2023-03-03T06:03:47.977Z,50.902462
2023-03-03T06:04:47.936Z,50.902420
2023-03-03T06:05:47.907Z,50.902466
2023-03-03T06:06:47.874Z,50.902416
2023-03-03T06:07:47.912Z,50.902470
2023-03-03T06:08:47.877Z,50.902435
2023-03-03T06:09:47.914Z,50.902515
2023-03-03T06:10:47.870Z,50.902451
2023-03-03T06:11:47.898Z,50.902431
2023-03-03T06:12:47.892Z,50.902431
2023-03-03T06:13:47.840Z,50.902443
2023-03-03T06:14:47.861Z,50.902447
2023-03-03T06:15:47.825Z,50.902420
2023-03-03T06:16:47.806Z,50.902462
2023-03-03T06:17:48.082Z,50.902401
2023-03-03T06:18:47.826Z,50.902267
2023-03-03T06:19:47.808Z,50.902393
2023-03-03T06:20:47.777Z,50.902416
2023-03-03T06:21:47.761Z,50.902409
2023-03-03T06:22:47.769Z,50.902454
2023-03-03T06:23:47.788Z,50.902489
2023-03-03T06:24:47.790Z,50.902359
2023-03-03T06:25:47.739Z,50.902431
2023-03-03T06:26:47.743Z,50.902367
2023-03-03T06:27:47.731Z,50.902348
2023-03-03T06:28:47.716Z,50.902328
2023-03-03T06:29:47.770Z,50.902378
2023-03-03T06:30:47.722Z,50.902489
2023-03-03T06:31:47.763Z,50.902447
2023-03-03T06:32:47.704Z,50.902462
2023-03-03T06:33:47.673Z,50.902287
2023-03-03T06:34:47.701Z,50.902367
2023-03-03T06:35:47.753Z,50.902363
2023-03-03T06:36:47.651Z,50.902573
2023-03-03T06:37:47.647Z,50.902431
2023-03-03T06:38:47.651Z,50.902351
2023-03-03T06:39:47.625Z,50.902378
2023-03-03T06:40:47.705Z,50.902576
2023-03-03T06:41:47.658Z,50.902561
2023-03-03T06:42:47.624Z,50.902477
2023-03-03T06:43:47.606Z,50.902344
2023-03-03T06:44:47.607Z,50.902374
2023-03-03T06:45:47.655Z,50.902382
2023-03-03T06:46:47.606Z,50.902248
2023-03-03T06:47:47.565Z,50.902359
2023-03-03T06:48:47.558Z,50.902431
2023-03-03T06:49:47.648Z,50.902363
2023-03-03T06:50:47.582Z,50.902401
2023-03-03T06:51:47.583Z,50.902576
2023-03-03T06:52:47.535Z,50.902485
2023-03-03T06:53:47.521Z,50.902512
2023-03-03T06:54:47.512Z,50.902435
2023-03-03T06:55:47.544Z,50.902374
2023-03-03T06:56:47.496Z,50.902302
2023-03-03T06:57:47.519Z,50.902363
2023-03-03T06:58:47.487Z,50.902336
2023-03-03T06:59:47.480Z,50.902386
2023-03-03T07:00:47.602Z,50.902409
2023-03-03T07:01:47.463Z,50.902367
2023-03-03T07:02:47.467Z,50.902355
2023-03-03T07:03:47.559Z,50.902321
2023-03-03T07:04:47.468Z,50.902340
2023-03-03T07:05:47.461Z,50.902279
2023-03-03T07:06:47.469Z,50.902386
2023-03-03T07:07:47.430Z,50.902370
2023-03-03T07:08:47.441Z,50.902428
2023-03-03T07:09:47.418Z,50.902370
2023-03-03T07:10:47.511Z,50.902359
2023-03-03T07:11:47.466Z,50.902397
2023-03-03T07:12:47.389Z,50.902405
2023-03-03T07:13:47.398Z,50.902336
2023-03-03T07:14:47.389Z,50.902351
2023-03-03T07:15:47.409Z,50.902424
2023-03-03T07:16:47.419Z,50.902412
2023-03-03T07:17:48.476Z,50.902443
2023-03-03T07:18:47.391Z,50.902367
2023-03-03T07:19:47.346Z,50.902351
2023-03-03T07:20:47.354Z,50.902409
2023-03-03T07:21:47.325Z,50.902405
2023-03-03T07:22:47.353Z,50.902420
2023-03-03T07:23:47.335Z,50.902393
2023-03-03T07:24:47.399Z,50.902390
2023-03-03T07:25:47.345Z,50.902390
2023-03-03T07:26:47.298Z,50.902367
2023-03-03T07:27:47.334Z,50.902397
2023-03-03T07:28:47.276Z,50.902386
2023-03-03T07:29:47.272Z,50.902405
2023-03-03T07:30:47.292Z,50.902348
2023-03-03T07:31:47.289Z,50.902367
2023-03-03T07:32:47.233Z,50.902386
2023-03-03T07:33:48.252Z,50.902340
2023-03-03T07:34:47.243Z,50.902359
2023-03-03T07:35:47.293Z,50.902370
2023-03-03T07:36:47.267Z,50.902355
2023-03-03T07:37:47.200Z,50.902367
2023-03-03T07:38:47.196Z,50.902409
2023-03-03T07:39:47.183Z,50.902378
2023-03-03T07:40:48.183Z,50.902397
2023-03-03T07:41:47.205Z,50.902351
2023-03-03T07:42:47.179Z,50.902340
2023-03-03T07:43:47.189Z,50.902355
2023-03-03T07:44:47.175Z,50.902370
2023-03-03T07:45:47.208Z,50.902409
2023-03-03T07:46:47.170Z,50.902363
2023-03-03T07:47:47.137Z,50.902412
2023-03-03T07:48:47.139Z,50.902409
2023-03-03T07:49:47.122Z,50.902409
2023-03-03T07:50:47.112Z,50.902390
2023-03-03T07:51:47.149Z,50.902420
2023-03-03T07:52:47.104Z,50.902279
2023-03-03T07:53:47.090Z,50.902390
2023-03-03T07:54:47.080Z,50.902397
2023-03-03T07:55:47.071Z,50.902409
2023-03-03T07:56:47.147Z,50.902420
2023-03-03T07:57:47.057Z,50.902390
2023-03-03T07:58:47.064Z,50.902412
2023-03-03T07:59:47.047Z,50.902393
2023-03-03T08:00:47.123Z,50.902409
2023-03-03T08:01:47.074Z,50.902420
2023-03-03T08:02:47.041Z,50.902435
2023-03-03T08:03:47.058Z,50.902412
2023-03-03T08:04:47.078Z,50.902428
2023-03-03T08:05:47.021Z,50.902405
2023-03-03T08:06:47.027Z,50.902355
2023-03-03T08:07:46.995Z,50.902382
2023-03-03T08:08:46.981Z,50.902412
2023-03-03T08:09:46.974Z,50.902412
2023-03-03T08:10:47.050Z,50.902397
2023-03-03T08:11:46.987Z,50.902416
2023-03-03T08:12:46.944Z,50.902363
2023-03-03T08:13:46.938Z,50.902382
2023-03-03T08:14:46.921Z,50.902458
2023-03-03T08:15:47.009Z,50.902451
2023-03-03T08:16:46.933Z,50.902397
2023-03-03T08:17:46.925Z,50.902416
2023-03-03T08:18:46.897Z,50.902447
2023-03-03T08:19:46.928Z,50.902443
2023-03-03T08:20:46.875Z,50.902439
2023-03-03T08:21:47.692Z,50.902462
2023-03-03T08:22:46.939Z,50.902458
2023-03-03T08:23:46.858Z,50.902424
2023-03-03T08:24:46.842Z,50.902527
2023-03-03T08:25:46.922Z,50.902500
2023-03-03T08:26:46.829Z,50.902470
2023-03-03T08:27:46.863Z,50.902458
2023-03-03T08:28:46.802Z,50.902458
2023-03-03T08:29:48.552Z,50.902367
2023-03-03T08:30:47.851Z,50.902340
2023-03-03T08:31:46.799Z,50.902443
2023-03-03T08:32:46.926Z,50.902431
2023-03-03T08:33:46.760Z,50.902401
2023-03-03T08:34:46.761Z,50.902397
2023-03-03T08:35:46.797Z,50.902477
2023-03-03T08:36:46.835Z,50.902386
2023-03-03T08:37:46.775Z,50.902386
2023-03-03T08:38:46.737Z,50.902435
2023-03-03T08:39:46.712Z,50.902401
2023-03-03T08:40:46.745Z,50.902363
2023-03-03T08:41:46.713Z,50.902382
2023-03-03T08:42:46.718Z,50.902370
2023-03-03T08:43:47.678Z,50.902378
2023-03-03T08:44:46.690Z,50.902367
2023-03-03T08:45:46.671Z,50.902378
2023-03-03T08:46:46.696Z,50.902359
2023-03-03T08:47:46.684Z,50.902374
2023-03-03T08:48:46.653Z,50.902390
2023-03-03T08:49:46.643Z,50.902390
2023-03-03T08:50:46.632Z,50.902386
2023-03-03T08:51:46.651Z,50.902401
2023-03-03T08:52:46.692Z,50.902374
2023-03-03T08:53:46.698Z,50.902382
2023-03-03T08:54:46.633Z,50.902359
2023-03-03T08:55:46.597Z,50.902367
2023-03-03T08:56:46.587Z,50.902397
2023-03-03T08:57:46.619Z,50.902370
2023-03-03T08:59:01.279Z,50.902374
2023-03-03T08:59:48.570Z,50.902390
2023-03-03T09:00:49.252Z,50.902386
2023-03-03T09:01:47.669Z,50.902367
2023-03-03T09:02:46.640Z,50.902367
2023-03-03T09:03:46.546Z,50.902344
2023-03-03T09:04:46.545Z,50.902355
2023-03-03T09:05:46.546Z,50.902370
2023-03-03T09:06:46.527Z,50.902386
2023-03-03T09:07:47.935Z,50.902382
2023-03-03T09:08:47.499Z,50.902378
2023-03-03T09:09:46.498Z,50.902386
2023-03-03T09:10:47.853Z,50.902401
2023-03-03T09:11:46.470Z,50.902374
2023-03-03T09:12:46.488Z,50.902386
2023-03-03T09:13:46.478Z,50.902409
2023-03-03T09:14:46.442Z,50.902370
2023-03-03T09:15:46.445Z,50.902367
2023-03-03T09:16:46.444Z,50.902386
2023-03-03T09:17:46.808Z,50.902367
2023-03-03T09:18:46.422Z,50.902405
2023-03-03T09:19:46.421Z,50.902382
2023-03-03T09:20:46.416Z,50.902401
2023-03-03T09:21:46.387Z,50.902393
2023-03-03T09:22:46.379Z,50.902386
2023-03-03T09:23:46.414Z,50.902382
2023-03-03T09:24:46.380Z,50.902351
2023-03-03T09:25:47.307Z,50.902351
2023-03-03T09:26:46.357Z,50.902367
2023-03-03T09:27:46.378Z,50.902420
2023-03-03T09:28:46.375Z,50.902405
2023-03-03T09:29:46.333Z,50.902386
2023-03-03T09:30:46.325Z,50.902382
2023-03-03T09:31:46.386Z,50.902447
2023-03-03T09:32:46.312Z,50.902412
2023-03-03T09:33:46.346Z,50.902393
2023-03-03T09:34:46.298Z,50.902412
2023-03-03T09:35:46.308Z,50.902409
2023-03-03T09:36:46.276Z,50.902412
2023-03-03T09:37:46.273Z,50.902397
2023-03-03T09:38:46.285Z,50.902386
2023-03-03T09:39:46.249Z,50.902386
2023-03-03T09:40:46.246Z,50.902382
2023-03-03T09:41:46.236Z,50.902390
2023-03-03T09:42:46.238Z,50.902424
2023-03-03T09:43:46.276Z,50.902378
2023-03-03T09:44:46.242Z,50.902405
2023-03-03T09:45:47.208Z,50.902378
2023-03-03T09:46:46.699Z,50.902390
2023-03-03T09:47:46.214Z,50.902397
2023-03-03T09:48:46.212Z,50.902378
2023-03-03T09:49:46.177Z,50.902386
2023-03-03T09:50:46.193Z,50.902401
2023-03-03T09:51:46.175Z,50.902393
2023-03-03T09:52:46.186Z,50.902390
2023-03-03T09:53:46.139Z,50.902374
2023-03-03T09:54:46.173Z,50.902386
2023-03-03T09:55:46.161Z,50.902374
2023-03-03T09:56:46.123Z,50.902390
2023-03-03T09:57:46.112Z,50.902397
2023-03-03T09:58:46.120Z,50.902393
2023-03-03T09:59:46.125Z,50.902401
2023-03-03T10:00:46.112Z,50.902412
2023-03-03T10:01:46.077Z,50.902397
2023-03-03T10:02:46.134Z,50.902401
2023-03-03T10:03:46.114Z,50.902332
2023-03-03T10:04:46.595Z,50.902390
2023-03-03T10:05:46.479Z,50.902363
2023-03-03T10:06:46.052Z,50.902390
2023-03-03T10:07:46.039Z,50.902401
2023-03-03T10:08:46.281Z,50.902378
2023-03-03T10:09:46.430Z,50.902412
2023-03-03T10:10:46.058Z,50.902378
2023-03-03T10:11:46.007Z,50.902401
2023-03-03T10:12:46.449Z,50.902382
2023-03-03T10:13:45.988Z,50.902405
2023-03-03T10:14:46.000Z,50.902416
2023-03-03T10:15:46.475Z,50.902382
2023-03-03T10:16:46.075Z,50.902348
2023-03-03T10:17:46.537Z,50.902378
2023-03-03T10:18:45.956Z,50.902443
2023-03-03T10:19:45.970Z,50.902397
2023-03-03T10:20:50.180Z,50.902416
2023-03-03T10:21:47.419Z,50.902443
2023-03-03T10:22:45.916Z,50.902439
2023-03-03T10:23:46.497Z,50.902424
2023-03-03T10:24:46.556Z,50.902340
2023-03-03T10:25:46.351Z,50.902393
2023-03-03T10:26:52.535Z,50.902424
2023-03-03T10:27:47.901Z,50.902405
2023-03-03T10:28:46.238Z,50.902409
2023-03-03T10:29:45.885Z,50.902412
2023-03-03T10:31:02.035Z,50.902416
2023-03-03T10:31:47.936Z,50.902409
2023-03-03T10:32:46.035Z,50.902439
2023-03-03T10:33:45.960Z,50.902428
2023-03-03T10:34:45.835Z,50.902412
2023-03-03T10:36:00.883Z,50.902424
2023-03-03T10:36:47.813Z,50.902397
2023-03-03T10:37:46.037Z,50.902428
2023-03-03T10:38:45.818Z,50.902435
2023-03-03T10:39:45.824Z,50.902439
2023-03-03T10:40:45.813Z,50.902428
2023-03-03T10:41:45.787Z,50.902435
2023-03-03T10:42:45.765Z,50.902439
2023-03-03T10:43:45.767Z,50.902477
2023-03-03T10:44:45.759Z,50.902458
2023-03-03T10:45:45.835Z,50.902443
2023-03-03T10:46:45.746Z,50.902431
2023-03-03T10:47:45.740Z,50.902428
2023-03-03T10:48:45.745Z,50.902443
2023-03-03T10:49:45.720Z,50.902451
2023-03-03T10:50:45.762Z,50.902454
2023-03-03T10:51:45.701Z,50.902466
2023-03-03T10:52:45.706Z,50.902454
2023-03-03T10:53:45.697Z,50.902454
2023-03-03T10:54:45.689Z,50.902470
2023-03-03T10:55:45.702Z,50.902493
2023-03-03T10:56:52.805Z,50.902496
2023-03-03T10:57:47.663Z,50.902428
2023-03-03T10:58:45.680Z,50.902512
2023-03-03T10:59:45.644Z,50.902519
2023-03-03T11:00:45.731Z,50.902607
2023-03-03T11:01:45.643Z,50.902580
2023-03-03T11:02:45.622Z,50.902637
2023-03-03T11:03:45.621Z,50.902557
2023-03-03T11:04:45.639Z,50.902473
2023-03-03T11:05:45.685Z,50.902473
2023-03-03T11:06:45.646Z,50.902489
2023-03-03T11:07:45.587Z,50.902470
2023-03-03T11:08:45.583Z,50.902473
2023-03-03T11:09:45.578Z,50.902489
2023-03-03T11:10:45.588Z,50.902481
2023-03-03T11:11:45.557Z,50.902424
2023-03-03T11:12:45.553Z,50.902481
2023-03-03T11:13:45.539Z,50.902489
2023-03-03T11:14:45.528Z,50.902500
2023-03-03T11:15:45.593Z,50.902504
2023-03-03T11:16:45.540Z,50.902470
2023-03-03T11:17:45.507Z,50.902493
2023-03-03T11:18:45.605Z,50.902496
2023-03-03T11:19:45.498Z,50.902500
2023-03-03T11:20:45.484Z,50.902493
2023-03-03T11:21:45.503Z,50.902496
2023-03-03T11:22:46.199Z,50.902512
2023-03-03T11:23:45.456Z,50.902477
2023-03-03T11:24:45.443Z,50.902458